Time;durP1;ratioP1;P1;durP2;ratioP2;P2;SDS_P1;SDS_P2;PMS_P1;PMS_P2;Temp;Humidity;BMP_temperature;BMP_pressure;BME280_temperature;BME280_humidity;BME280_pressure;Samples;Min_cycle;Max_cycle;Signal;HPM_P1;HPM_P2
2022/09/18 00:01:21;;;;;;;9.43;1.70;;;10.90;89.60;;;;;;5094221;28;20031;-39
2022/09/18 00:03:47;;;;;;;5.63;2.00;;;10.80;89.90;;;;;;5095077;28;20020;-39
2022/09/18 00:06:19;;;;;;;7.55;1.85;;;10.80;90.10;;;;;;5095387;28;20028;-39
2022/09/18 00:08:45;;;;;;;5.82;2.00;;;10.80;90.20;;;;;;5095283;28;20388;-39
2022/09/18 00:11:13;;;;;;;7.53;1.95;;;10.80;90.40;;;;;;5095026;28;20476;-39
2022/09/18 00:13:40;;;;;;;8.45;2.30;;;10.80;90.50;;;;;;5094967;28;20431;-39
2022/09/18 00:16:08;;;;;;;12.75;3.85;;;10.80;90.60;;;;;;5094852;28;20097;-39
2022/09/18 00:18:34;;;;;;;3.03;2.58;;;10.80;90.60;;;;;;5095085;28;20428;-39
2022/09/18 00:21:09;;;;;;;4.93;2.03;;;10.90;90.50;;;;;;5094940;28;20353;-39
2022/09/18 00:23:35;;;;;;;10.80;2.30;;;10.80;90.50;;;;;;5095096;28;20020;-39
2022/09/18 00:26:01;;;;;;;6.18;2.30;;;10.90;90.60;;;;;;5094996;28;20024;-39
2022/09/18 00:28:27;;;;;;;7.15;2.08;;;10.80;90.80;;;;;;5094610;28;20016;-39
2022/09/18 00:30:53;;;;;;;5.18;2.22;;;10.80;90.60;;;;;;5094567;28;20048;-39
2022/09/18 00:33:19;;;;;;;9.02;1.90;;;10.80;90.70;;;;;;5095460;28;20306;-39
2022/09/18 00:35:44;;;;;;;11.18;2.58;;;10.80;90.50;;;;;;5094744;28;20024;-40
2022/09/18 00:38:10;;;;;;;9.05;2.45;;;10.80;90.50;;;;;;5094380;28;20023;-39
2022/09/18 00:40:37;;;;;;;5.13;1.92;;;10.80;90.50;;;;;;5094664;28;20028;-40
2022/09/18 00:43:23;;;;;;;6.90;2.47;;;10.80;90.50;;;;;;5094382;28;20016;-47
2022/09/18 00:45:53;;;;;;;13.65;2.53;;;10.90;90.50;;;;;;5094690;28;20024;-38
2022/09/18 00:48:21;;;;;;;8.75;2.28;;;10.90;90.50;;;;;;5094742;28;20054;-38
2022/09/18 00:50:47;;;;;;;7.40;2.13;;;10.90;90.20;;;;;;5095743;28;20066;-38
2022/09/18 00:53:12;;;;;;;16.88;2.38;;;10.90;90.20;;;;;;5094689;28;20099;-37
2022/09/18 00:55:39;;;;;;;11.00;2.45;;;11.00;90.30;;;;;;5094439;28;20516;-39
2022/09/18 00:58:05;;;;;;;6.50;2.00;;;11.00;90.10;;;;;;5093776;28;20024;-38
2022/09/18 01:00:32;;;;;;;6.07;2.22;;;10.80;90.30;;;;;;5093982;28;20162;-38
2022/09/18 01:03:02;;;;;;;7.70;2.50;;;10.90;90.30;;;;;;5093600;28;20043;-38
2022/09/18 01:05:55;;;;;;;9.88;1.95;;;11.00;90.30;;;;;;5093704;28;20024;-39
2022/09/18 01:08:27;;;;;;;10.45;2.33;;;11.00;90.30;;;;;;5093443;28;20016;-38
2022/09/18 01:11:07;;;;;;;7.38;2.13;;;11.00;90.30;;;;;;5093605;28;20472;-38
2022/09/18 01:14:03;;;;;;;11.60;3.08;;;11.00;90.30;;;;;;5093521;28;20020;-38
2022/09/18 01:16:48;;;;;;;7.97;2.03;;;11.00;90.30;;;;;;5093666;28;20024;-38
2022/09/18 01:19:38;;;;;;;6.03;2.20;;;11.00;90.40;;;;;;5093439;28;20134;-38
2022/09/18 01:22:24;;;;;;;11.93;2.33;;;11.00;90.50;;;;;;5093909;28;20372;-38
2022/09/18 01:24:56;;;;;;;10.52;2.58;;;11.00;90.50;;;;;;5093621;28;20024;-38
2022/09/18 01:27:25;;;;;;;5.93;1.88;;;10.90;90.50;;;;;;5093493;28;20020;-39
2022/09/18 01:30:06;;;;;;;12.60;2.63;;;11.00;90.40;;;;;;5093235;28;20114;-38
2022/09/18 01:33:11;;;;;;;11.00;2.30;;;11.00;90.50;;;;;;5093424;28;20062;-39
2022/09/18 01:35:48;;;;;;;6.60;2.50;;;11.00;90.40;;;;;;5092796;28;20072;-38
2022/09/18 01:38:23;;;;;;;5.22;2.20;;;11.00;90.40;;;;;;5093605;28;20345;-38
2022/09/18 01:40:54;;;;;;;6.57;1.80;;;11.00;90.40;;;;;;5092967;28;20016;-38
2022/09/18 01:43:22;;;;;;;9.32;2.47;;;11.00;90.50;;;;;;5093117;28;20024;-38
2022/09/18 01:45:51;;;;;;;10.35;2.00;;;11.10;90.50;;;;;;5092991;28;20020;-38
2022/09/18 01:48:28;;;;;;;3.10;1.77;;;11.00;90.40;;;;;;5092991;28;20020;-38
2022/09/18 01:51:06;;;;;;;6.93;2.83;;;11.00;90.40;;;;;;5093363;28;20055;-38
2022/09/18 01:53:43;;;;;;;26.65;4.63;;;11.00;90.30;;;;;;5093787;28;20099;-38
2022/09/18 01:56:29;;;;;;;9.68;1.95;;;11.10;90.50;;;;;;5093071;28;20028;-38
2022/09/18 01:58:58;;;;;;;9.48;3.22;;;11.00;90.40;;;;;;5092940;28;20119;-38
2022/09/18 02:01:28;;;;;;;6.00;1.95;;;11.10;90.40;;;;;;5092996;28;20029;-38
2022/09/18 02:03:59;;;;;;;6.13;2.40;;;11.00;90.40;;;;;;5093197;28;20026;-38
2022/09/18 02:06:33;;;;;;;10.23;3.55;;;11.10;90.30;;;;;;5093307;28;20036;-39
2022/09/18 02:09:00;;;;;;;8.25;2.50;;;11.10;90.20;;;;;;5093257;28;20433;-38
2022/09/18 02:11:26;;;;;;;18.55;3.63;;;11.10;90.20;;;;;;5092764;28;20102;-38
2022/09/18 02:14:18;;;;;;;7.20;2.35;;;11.10;90.30;;;;;;5092854;28;20032;-38
2022/09/18 02:17:05;;;;;;;7.40;2.17;;;11.10;90.40;;;;;;5092404;28;20054;-37
2022/09/18 02:19:41;;;;;;;5.97;2.25;;;11.10;90.50;;;;;;5092650;28;20055;-38
2022/09/18 02:22:11;;;;;;;13.13;2.47;;;11.10;90.40;;;;;;5096606;28;20028;-38
2022/09/18 02:24:40;;;;;;;6.13;2.33;;;11.10;90.40;;;;;;5097123;28;20073;-38
2022/09/18 02:27:07;;;;;;;8.30;1.92;;;11.20;90.40;;;;;;5096784;28;20020;-38
2022/09/18 02:29:34;;;;;;;6.55;2.17;;;11.10;90.50;;;;;;5097137;28;20031;-38
2022/09/18 02:32:00;;;;;;;12.13;3.50;;;11.20;90.60;;;;;;5097206;28;20024;-38
2022/09/18 02:34:28;;;;;;;8.98;2.67;;;11.20;90.40;;;;;;5096820;28;20032;-38
2022/09/18 02:37:26;;;;;;;10.73;2.75;;;11.10;90.50;;;;;;5096836;28;20028;-39
2022/09/18 02:40:27;;;;;;;6.60;2.60;;;11.20;90.50;;;;;;5082535;28;20047;-38
2022/09/18 02:43:24;;;;;;;8.32;2.53;;;11.10;90.50;;;;;;5081968;28;20028;-39
2022/09/18 02:46:05;;;;;;;13.65;2.45;;;11.20;90.50;;;;;;5093395;28;20121;-39
2022/09/18 02:48:44;;;;;;;12.20;3.05;;;11.20;90.40;;;;;;5096773;28;20043;-38
2022/09/18 02:51:34;;;;;;;15.48;3.92;;;11.10;90.50;;;;;;5096393;28;20039;-38
2022/09/18 02:54:15;;;;;;;6.43;3.10;;;11.10;90.70;;;;;;5096944;28;20028;-38
2022/09/18 02:56:58;;;;;;;11.63;2.53;;;11.10;90.70;;;;;;5096540;28;20093;-38
2022/09/18 02:59:33;;;;;;;15.32;2.95;;;11.10;90.70;;;;;;5095931;28;20376;-38
2022/09/18 03:01:59;;;;;;;9.25;2.85;;;11.10;90.60;;;;;;5095024;28;20085;-38
2022/09/18 03:04:26;;;;;;;6.40;2.63;;;11.10;90.70;;;;;;5096398;28;20020;-38
2022/09/18 03:06:53;;;;;;;9.77;3.05;;;11.10;90.70;;;;;;5096053;28;20024;-39
2022/09/18 03:09:19;;;;;;;11.65;2.75;;;11.10;90.60;;;;;;5096321;28;20036;-38
2022/09/18 03:11:44;;;;;;;10.57;4.00;;;11.10;90.70;;;;;;5096015;28;20099;-38
2022/09/18 03:14:11;;;;;;;8.18;2.63;;;11.20;90.70;;;;;;5095886;28;20116;-38
2022/09/18 03:16:37;;;;;;;12.60;3.38;;;11.20;90.60;;;;;;5096131;28;20480;-38
2022/09/18 03:19:03;;;;;;;8.20;2.85;;;11.20;90.60;;;;;;5096121;28;20024;-37
2022/09/18 03:21:29;;;;;;;5.68;3.70;;;11.10;90.80;;;;;;5095858;28;20046;-39
2022/09/18 03:23:55;;;;;;;11.82;3.65;;;11.10;90.90;;;;;;5096174;28;20017;-38
2022/09/18 03:26:21;;;;;;;12.18;4.22;;;11.10;91.10;;;;;;5095943;28;20023;-38
2022/09/18 03:28:47;;;;;;;24.20;4.70;;;11.20;91.20;;;;;;5095940;28;20082;-38
2022/09/18 03:31:13;;;;;;;7.63;3.80;;;11.10;91.00;;;;;;5095806;28;20036;-38
2022/09/18 03:33:39;;;;;;;17.73;3.95;;;11.10;91.10;;;;;;5095655;28;20118;-38
2022/09/18 03:36:05;;;;;;;12.43;4.05;;;11.10;91.00;;;;;;5095553;28;20103;-38
2022/09/18 03:38:31;;;;;;;14.30;3.58;;;11.10;90.90;;;;;;5095489;28;20032;-38
2022/09/18 03:40:58;;;;;;;10.82;4.55;;;11.20;91.10;;;;;;5095457;28;20099;-38
2022/09/18 03:43:25;;;;;;;6.07;3.17;;;11.20;90.90;;;;;;5095576;28;20028;-38
2022/09/18 03:45:50;;;;;;;8.35;3.13;;;11.20;90.80;;;;;;5095600;28;20024;-38
2022/09/18 03:48:16;;;;;;;4.88;2.53;;;11.20;91.00;;;;;;5095345;28;20020;-38
2022/09/18 03:50:41;;;;;;;12.65;3.40;;;11.10;90.80;;;;;;5095214;28;20028;-38
2022/09/18 03:53:07;;;;;;;8.95;2.92;;;11.20;90.90;;;;;;5095395;28;20161;-38
2022/09/18 03:55:34;;;;;;;7.95;4.25;;;11.00;91.10;;;;;;5095101;28;20418;-38
2022/09/18 03:58:00;;;;;;;10.05;3.30;;;11.10;91.20;;;;;;5095195;28;20107;-38
2022/09/18 04:00:27;;;;;;;9.88;3.55;;;11.10;91.10;;;;;;5095236;28;20040;-38
2022/09/18 04:02:52;;;;;;;4.55;2.45;;;11.10;91.00;;;;;;5095276;28;20032;-38
2022/09/18 04:05:18;;;;;;;12.32;3.15;;;11.10;90.90;;;;;;5094977;28;20027;-38
2022/09/18 04:07:43;;;;;;;6.43;2.80;;;11.20;91.00;;;;;;5094973;28;20024;-38
2022/09/18 04:10:09;;;;;;;8.82;3.15;;;11.20;90.90;;;;;;5095385;28;20165;-38
2022/09/18 04:12:35;;;;;;;7.35;2.15;;;11.20;91.00;;;;;;5094836;28;20032;-37
2022/09/18 04:15:00;;;;;;;6.28;2.22;;;11.20;90.80;;;;;;5094698;28;20020;-40
2022/09/18 04:17:26;;;;;;;13.75;3.03;;;11.20;91.00;;;;;;5095063;28;20043;-41
2022/09/18 04:19:52;;;;;;;12.80;3.88;;;11.20;91.00;;;;;;5094644;28;20028;-37
2022/09/18 04:22:17;;;;;;;12.52;3.17;;;11.30;91.10;;;;;;5093302;28;20020;-39
2022/09/18 04:24:45;;;;;;;9.32;3.00;;;11.20;91.00;;;;;;5094832;28;20418;-39
2022/09/18 04:27:11;;;;;;;11.10;3.35;;;11.30;91.20;;;;;;5094839;28;20027;-38
2022/09/18 04:29:36;;;;;;;4.70;3.20;;;11.20;91.20;;;;;;5094453;28;20384;-38
2022/09/18 04:32:02;;;;;;;5.25;2.70;;;11.20;91.30;;;;;;5094405;28;20031;-39
2022/09/18 04:34:27;;;;;;;7.05;3.85;;;11.10;91.40;;;;;;5094421;28;20476;-38
2022/09/18 04:36:53;;;;;;;8.65;3.58;;;11.20;91.40;;;;;;5094620;28;20030;-45
2022/09/18 04:39:19;;;;;;;10.55;3.22;;;11.20;91.40;;;;;;5092782;28;20032;-39
2022/09/18 04:41:44;;;;;;;11.20;3.60;;;11.20;91.50;;;;;;5093869;28;20023;-39
2022/09/18 04:44:11;;;;;;;7.68;2.83;;;11.10;91.60;;;;;;5093298;28;20042;-39
2022/09/18 04:46:36;;;;;;;13.70;4.05;;;11.20;91.50;;;;;;5094234;28;20378;-39
2022/09/18 04:49:02;;;;;;;11.23;2.78;;;11.20;91.50;;;;;;5093927;28;20103;-39
2022/09/18 04:51:28;;;;;;;8.95;3.08;;;11.10;91.60;;;;;;5094230;28;20024;-39
2022/09/18 04:53:53;;;;;;;12.20;3.22;;;11.20;91.80;;;;;;5094007;28;20039;-39
2022/09/18 04:56:19;;;;;;;5.07;2.60;;;11.10;91.70;;;;;;5093621;28;20084;-39
2022/09/18 04:58:45;;;;;;;5.45;2.53;;;11.10;91.70;;;;;;5093637;28;20039;-39
2022/09/18 05:01:11;;;;;;;12.05;3.15;;;11.10;92.00;;;;;;5094018;28;20505;-39
2022/09/18 17:53:57;;;;;;;2.35;0.82;;;9.40;91.40;;;;;;5131636;27;20110;-37
2022/09/18 17:56:28;;;;;;;4.43;1.05;;;9.40;91.40;;;;;;5113131;28;20115;-37
2022/09/18 17:58:59;;;;;;;1.58;0.93;;;9.40;91.30;;;;;;5131178;28;20447;-39
2022/09/18 18:01:26;;;;;;;2.53;0.73;;;9.50;91.30;;;;;;5131168;28;20058;-38
2022/09/18 18:03:53;;;;;;;3.28;1.08;;;9.60;91.10;;;;;;5112452;28;20045;-38
2022/09/18 18:06:19;;;;;;;3.60;1.20;;;9.70;90.80;;;;;;5112582;28;20035;-39
2022/09/18 18:08:45;;;;;;;6.10;0.98;;;9.60;90.80;;;;;;5130762;28;20103;-39
2022/09/18 18:11:16;;;;;;;1.20;1.00;;;9.60;90.60;;;;;;5131086;28;20019;-40
2022/09/18 18:13:43;;;;;;;4.05;1.15;;;9.60;90.70;;;;;;5131007;28;20371;-39
2022/09/18 18:16:14;;;;;;;3.10;1.17;;;9.50;91.00;;;;;;5130782;28;20023;-38
2022/09/18 18:18:41;;;;;;;0.70;0.65;;;9.50;91.10;;;;;;5131287;28;20064;-39
2022/09/18 18:21:08;;;;;;;3.78;1.30;;;9.40;91.10;;;;;;5130586;28;20023;-39
2022/09/18 18:23:38;;;;;;;2.75;1.35;;;9.30;91.20;;;;;;5131422;28;20046;-39
2022/09/18 18:26:05;;;;;;;1.35;0.75;;;9.30;91.30;;;;;;5112093;28;20095;-39
2022/09/18 18:28:33;;;;;;;2.53;1.10;;;9.30;91.40;;;;;;5130698;28;20034;-39
2022/09/18 18:31:02;;;;;;;2.30;1.02;;;9.20;91.40;;;;;;5131170;28;20050;-38
2022/09/18 18:33:28;;;;;;;1.77;1.00;;;9.20;91.50;;;;;;5130583;28;20031;-38
2022/09/18 18:35:54;;;;;;;2.08;1.33;;;9.10;91.50;;;;;;5130502;28;20037;-38
2022/09/18 18:38:19;;;;;;;2.47;1.25;;;9.10;91.40;;;;;;5131045;28;20098;-39
2022/09/18 18:40:46;;;;;;;5.47;1.20;;;9.10;91.50;;;;;;5130510;28;20100;-38
2022/09/18 18:43:15;;;;;;;4.32;1.55;;;9.00;91.60;;;;;;5130491;27;20028;-38
2022/09/18 18:45:55;;;;;;;4.18;1.48;;;9.10;91.60;;;;;;5129170;28;20383;-38
2022/09/18 18:48:21;;;;;;;1.38;0.98;;;9.00;91.70;;;;;;5130679;27;20093;-38
2022/09/18 18:50:48;;;;;;;7.72;1.73;;;8.90;91.80;;;;;;5130804;27;20532;-39
2022/09/18 18:53:16;;;;;;;5.20;1.10;;;9.00;91.90;;;;;;5128822;28;20172;-39
2022/09/18 18:55:42;;;;;;;2.28;1.27;;;9.00;91.90;;;;;;5130110;28;20034;-39
2022/09/18 18:58:09;;;;;;;3.53;1.25;;;8.90;91.90;;;;;;5128899;28;20111;-38
2022/09/18 19:00:35;;;;;;;3.92;1.10;;;9.00;92.00;;;;;;5130456;27;20424;-38
2022/09/18 19:03:01;;;;;;;8.40;1.42;;;8.90;92.10;;;;;;5129072;27;20047;-39
2022/09/18 19:05:29;;;;;;;2.58;1.20;;;8.90;92.20;;;;;;5115714;28;20059;-38
2022/09/18 19:07:55;;;;;;;2.53;1.33;;;8.80;92.30;;;;;;5116514;28;20411;-38
2022/09/18 19:10:24;;;;;;;7.32;1.25;;;8.90;92.40;;;;;;5114818;28;20031;-38
2022/09/18 19:12:56;;;;;;;3.22;2.35;;;8.90;92.60;;;;;;5115191;28;20484;-38
2022/09/18 19:15:23;;;;;;;2.05;1.33;;;8.90;92.60;;;;;;5115970;28;20039;-38
2022/09/18 19:17:50;;;;;;;8.02;1.73;;;8.90;92.70;;;;;;5116205;28;20023;-38
2022/09/18 19:20:18;;;;;;;3.42;1.42;;;8.90;92.70;;;;;;5116065;28;20084;-38
2022/09/18 19:22:56;;;;;;;2.95;1.52;;;8.90;92.70;;;;;;5115930;28;20031;-40
2022/09/18 19:25:26;;;;;;;2.88;1.67;;;8.90;92.80;;;;;;5115666;28;20383;-39
2022/09/18 19:27:56;;;;;;;7.10;2.05;;;8.90;93.00;;;;;;5115894;28;20584;-38
2022/09/18 19:30:23;;;;;;;5.43;1.95;;;8.90;93.00;;;;;;5115828;27;20028;-38
2022/09/18 19:32:53;;;;;;;2.08;1.63;;;8.90;93.00;;;;;;5115617;27;20031;-37
2022/09/18 19:35:18;;;;;;;8.77;1.92;;;8.80;93.10;;;;;;5115990;28;20491;-38
2022/09/18 19:37:44;;;;;;;3.22;2.33;;;8.80;93.30;;;;;;5115588;28;20107;-38
2022/09/18 19:40:12;;;;;;;3.13;2.10;;;8.80;93.40;;;;;;5114340;28;20019;-38
2022/09/18 19:42:39;;;;;;;4.57;1.95;;;8.80;93.50;;;;;;5115788;28;20023;-40
2022/09/18 19:45:05;;;;;;;5.15;2.38;;;8.80;93.60;;;;;;5114277;28;20483;-38
2022/09/18 19:47:39;;;;;;;5.10;2.75;;;8.80;93.60;;;;;;5115388;28;20141;-38
2022/09/18 19:50:09;;;;;;;4.93;2.10;;;8.80;93.60;;;;;;5115917;28;20493;-39
2022/09/18 19:52:35;;;;;;;4.47;2.43;;;8.80;93.70;;;;;;5115417;28;20047;-38
2022/09/18 19:55:00;;;;;;;7.43;2.28;;;8.80;93.70;;;;;;5115762;27;20039;-38
2022/09/18 19:57:28;;;;;;;5.82;2.88;;;8.80;93.80;;;;;;5115721;28;20100;-38
2022/09/18 19:59:56;;;;;;;4.93;1.85;;;8.80;93.80;;;;;;5115448;28;20115;-38
2022/09/18 20:02:23;;;;;;;4.63;2.40;;;8.80;93.90;;;;;;5115488;28;20047;-38
2022/09/18 20:04:48;;;;;;;3.28;2.70;;;8.80;93.90;;;;;;5115627;27;20032;-40
2022/09/18 20:07:14;;;;;;;7.65;2.20;;;8.80;93.90;;;;;;5113785;28;20475;-39
2022/09/18 20:09:40;;;;;;;3.63;2.30;;;8.90;93.90;;;;;;5115123;28;20077;-40
2022/09/18 20:12:07;;;;;;;7.10;1.75;;;8.90;93.90;;;;;;5113631;28;20023;-39
2022/09/18 20:14:33;;;;;;;5.32;2.30;;;8.90;93.80;;;;;;5115109;28;20034;-38
2022/09/18 20:16:59;;;;;;;4.10;2.53;;;9.00;93.80;;;;;;5114432;28;20020;-38
2022/09/18 20:19:25;;;;;;;4.68;2.85;;;9.00;93.80;;;;;;5113928;28;20020;-38
2022/09/18 20:21:55;;;;;;;4.90;3.00;;;8.90;93.80;;;;;;5115349;27;20028;-39
2022/09/18 20:24:21;;;;;;;6.78;2.90;;;8.90;93.80;;;;;;5116063;28;20436;-40
2022/09/18 20:26:47;;;;;;;5.28;2.15;;;9.00;93.90;;;;;;5114889;28;20024;-43
2022/09/18 20:29:13;;;;;;;3.42;2.08;;;8.90;93.80;;;;;;5114847;28;20106;-38
2022/09/18 20:31:39;;;;;;;13.15;3.70;;;9.00;93.80;;;;;;5115022;28;20073;-38
2022/09/18 20:34:05;;;;;;;6.47;2.83;;;9.00;93.80;;;;;;5114737;28;20023;-38
2022/09/18 20:36:31;;;;;;;5.82;2.38;;;9.00;93.90;;;;;;5114663;28;20051;-38
2022/09/18 20:39:02;;;;;;;7.82;2.85;;;9.10;93.80;;;;;;5114587;28;20498;-38
2022/09/18 20:41:28;;;;;;;7.43;2.35;;;9.00;93.80;;;;;;5113312;28;20020;-38
2022/09/18 20:43:55;;;;;;;7.40;2.97;;;9.10;93.80;;;;;;5113141;28;20015;-38
2022/09/18 20:46:22;;;;;;;5.28;2.35;;;9.10;93.90;;;;;;5114402;28;20159;-38
2022/09/18 20:48:53;;;;;;;4.00;2.38;;;9.10;93.80;;;;;;5114673;28;20012;-38
2022/09/18 20:51:27;;;;;;;2.00;1.80;;;9.20;93.70;;;;;;5114942;28;20364;-39
2022/09/18 20:53:57;;;;;;;14.10;3.17;;;9.30;93.60;;;;;;5114436;28;20048;-40
2022/09/18 20:56:29;;;;;;;;;;;9.30;93.50;;;;;;5113348;28;20035;-39
2022/09/18 20:58:55;;;;;;;6.88;2.35;;;9.30;93.50;;;;;;5114534;28;20267;-37
2022/09/18 21:01:23;;;;;;;8.85;3.35;;;9.30;93.50;;;;;;5114613;28;20028;-38
2022/09/18 21:03:56;;;;;;;3.30;1.80;;;9.30;93.50;;;;;;5114449;28;20374;-39
2022/09/18 21:06:24;;;;;;;10.65;2.33;;;9.30;93.50;;;;;;5114141;28;20024;-39
2022/09/18 21:08:52;;;;;;;6.72;2.58;;;9.30;93.40;;;;;;5114008;28;20031;-38
2022/09/18 21:11:29;;;;;;;8.45;2.22;;;9.40;93.40;;;;;;5112660;28;20391;-38
2022/09/18 21:14:00;;;;;;;7.35;2.25;;;9.30;93.40;;;;;;5114026;28;20072;-38
2022/09/18 21:16:28;;;;;;;6.35;2.60;;;9.40;93.40;;;;;;5113909;28;20098;-38
2022/09/18 21:18:59;;;;;;;6.13;2.40;;;9.40;93.30;;;;;;5112617;28;20038;-38
2022/09/18 21:21:27;;;;;;;6.18;2.55;;;9.40;93.40;;;;;;5114215;28;20027;-38
2022/09/18 21:24:00;;;;;;;16.25;2.60;;;9.50;93.30;;;;;;5113816;28;20024;-37
2022/09/18 21:26:34;;;;;;;10.40;2.30;;;9.50;93.30;;;;;;5113470;28;20027;-38
2022/09/18 21:29:03;;;;;;;6.47;2.10;;;9.50;93.30;;;;;;5113737;28;20024;-38
2022/09/18 21:31:32;;;;;;;5.78;2.35;;;9.50;93.10;;;;;;5112634;28;20019;-38
2022/09/18 21:33:59;;;;;;;6.75;2.92;;;9.50;93.10;;;;;;5113889;28;20050;-38
2022/09/18 21:36:25;;;;;;;6.75;2.22;;;9.60;93.00;;;;;;5114522;28;20102;-39
2022/09/18 21:38:53;;;;;;;12.25;2.30;;;9.70;92.80;;;;;;5113637;28;20035;-38
2022/09/18 21:41:20;;;;;;;9.98;1.95;;;9.70;92.60;;;;;;5112239;28;20075;-38
2022/09/18 21:43:49;;;;;;;11.93;2.58;;;9.70;92.50;;;;;;5113662;28;20106;-38
2022/09/18 21:46:18;;;;;;;12.85;2.40;;;9.80;92.60;;;;;;5113600;28;20023;-38
2022/09/18 21:48:46;;;;;;;3.83;1.55;;;9.90;92.40;;;;;;5113540;28;20020;-38
2022/09/18 21:51:13;;;;;;;11.55;2.00;;;9.90;91.90;;;;;;5113487;28;20032;-39
2022/09/18 21:53:40;;;;;;;6.95;1.63;;;10.00;91.70;;;;;;5113285;28;20048;-38
2022/09/18 21:56:07;;;;;;;9.18;1.80;;;10.10;91.40;;;;;;5113524;28;20478;-38
2022/09/18 21:58:37;;;;;;;16.30;2.40;;;10.10;91.10;;;;;;5113705;28;20038;-38
2022/09/18 22:01:17;;;;;;;5.00;1.77;;;10.20;90.60;;;;;;5113442;28;20482;-39
2022/09/18 22:03:49;;;;;;;;;;;10.20;90.40;;;;;;5114154;28;20027;-38
2022/09/18 22:06:17;;;;;;;13.00;2.35;;;10.20;90.20;;;;;;5113616;28;20312;-38
2022/09/18 22:08:42;;;;;;;12.75;2.10;;;10.30;90.00;;;;;;5113273;28;20024;-38
2022/09/18 22:11:08;;;;;;;2.42;1.45;;;10.30;90.00;;;;;;5113266;28;20023;-39
2022/09/18 22:13:34;;;;;;;7.22;1.60;;;10.30;89.80;;;;;;5113212;28;20049;-38
2022/09/18 22:16:00;;;;;;;14.82;3.10;;;10.30;89.60;;;;;;5113197;28;20028;-38
2022/09/18 22:18:26;;;;;;;15.35;2.05;;;10.30;89.60;;;;;;5111827;28;20027;-38
2022/09/18 22:20:53;;;;;;;11.65;1.45;;;10.30;89.30;;;;;;5112610;28;20065;-38
2022/09/18 22:23:18;;;;;;;4.13;2.00;;;10.30;89.30;;;;;;5113045;28;20093;-39
2022/09/18 22:25:44;;;;;;;10.70;1.73;;;10.40;88.70;;;;;;5113061;28;20020;-38
2022/09/18 22:28:10;;;;;;;9.18;1.95;;;10.40;88.30;;;;;;5113409;28;20319;-39
2022/09/18 22:30:36;;;;;;;6.90;1.95;;;10.50;88.10;;;;;;5113230;28;20030;-37
2022/09/18 22:33:04;;;;;;;9.93;1.90;;;10.30;88.50;;;;;;5113033;28;20031;-38
2022/09/18 22:35:31;;;;;;;6.60;1.80;;;10.30;88.60;;;;;;5113118;28;20023;-38
2022/09/18 22:37:56;;;;;;;15.27;2.30;;;10.30;89.00;;;;;;5113307;28;20024;-39
2022/09/18 22:40:22;;;;;;;4.40;1.35;;;10.30;89.10;;;;;;5116526;28;20020;-38
2022/09/18 22:42:48;;;;;;;5.57;1.95;;;10.30;89.30;;;;;;5116851;28;20046;-38
2022/09/18 22:45:13;;;;;;;10.70;1.70;;;10.20;89.40;;;;;;5116806;28;20109;-37
2022/09/18 22:47:39;;;;;;;7.13;1.45;;;10.20;89.50;;;;;;5117763;28;20114;-39
2022/09/18 22:50:06;;;;;;;10.18;1.98;;;10.20;89.40;;;;;;5116863;28;20031;-38
2022/09/18 22:52:33;;;;;;;7.30;1.60;;;10.20;89.30;;;;;;5116539;28;20039;-38
2022/09/18 22:54:59;;;;;;;13.15;1.92;;;10.20;89.50;;;;;;5117166;28;20027;-38
2022/09/18 22:57:26;;;;;;;9.90;1.58;;;10.20;89.40;;;;;;5116785;28;20020;-39
2022/09/18 22:59:51;;;;;;;9.27;1.65;;;10.20;89.50;;;;;;5116549;28;20055;-38
2022/09/18 23:02:18;;;;;;;12.85;2.97;;;10.20;89.40;;;;;;5116592;28;20066;-38
2022/09/18 23:04:45;;;;;;;6.20;1.20;;;10.20;89.30;;;;;;5115246;28;20032;-40
2022/09/18 23:07:12;;;;;;;15.30;2.38;;;10.30;89.10;;;;;;5116672;27;20358;-39
2022/09/18 23:09:39;;;;;;;12.32;2.03;;;10.30;89.10;;;;;;5116315;28;20031;-39
2022/09/18 23:12:05;;;;;;;4.72;1.48;;;10.30;89.10;;;;;;5116094;28;20035;-38
2022/09/18 23:14:31;;;;;;;6.65;1.77;;;10.30;89.10;;;;;;5116242;28;20027;-39
2022/09/18 23:16:58;;;;;;;12.77;3.10;;;10.30;89.30;;;;;;5116525;28;20030;-39
2022/09/18 23:19:32;;;;;;;8.70;2.75;;;10.30;89.10;;;;;;5115025;28;20023;-38
2022/09/18 23:21:58;;;;;;;10.45;1.75;;;10.30;88.70;;;;;;5116210;28;20100;-42
2022/09/18 23:24:25;;;;;;;11.52;2.50;;;10.30;88.80;;;;;;5115407;28;20048;-42
2022/09/18 23:26:52;;;;;;;18.67;3.13;;;10.30;89.20;;;;;;5116105;28;20031;-38
2022/09/18 23:29:20;;;;;;;14.15;2.60;;;10.30;89.10;;;;;;5116361;28;20042;-39
2022/09/18 23:31:56;;;;;;;5.95;2.10;;;10.30;89.00;;;;;;5115910;28;20016;-39
2022/09/18 23:34:25;;;;;;;8.60;2.08;;;10.20;89.00;;;;;;5116319;27;20028;-38
2022/09/18 23:36:53;;;;;;;10.27;2.15;;;10.30;88.90;;;;;;5115894;28;20020;-40
2022/09/18 23:39:23;;;;;;;9.23;1.55;;;10.30;88.80;;;;;;5116033;28;20031;-39
2022/09/18 23:41:50;;;;;;;11.20;1.70;;;10.30;88.80;;;;;;5115975;28;20134;-39
2022/09/18 23:44:17;;;;;;;6.97;1.67;;;10.30;88.80;;;;;;5115846;28;20027;-37
2022/09/18 23:46:44;;;;;;;14.60;2.05;;;10.30;88.70;;;;;;5115563;28;20022;-40
2022/09/18 23:49:11;;;;;;;12.63;2.42;;;10.30;88.80;;;;;;5115876;28;20016;-38
2022/09/18 23:51:40;;;;;;;15.40;2.33;;;10.30;88.50;;;;;;5115250;28;20379;-39
2022/09/18 23:54:11;;;;;;;7.38;1.83;;;10.30;88.40;;;;;;5116069;28;20367;-37
2022/09/18 23:56:36;;;;;;;12.23;2.15;;;10.30;88.30;;;;;;5116044;28;20020;-38
2022/09/18 23:59:05;;;;;;;14.93;2.75;;;10.30;88.40;;;;;;5115617;28;20039;-38
